sensor_id;sensor_type;location;lat;lon;timestamp;pressure;altitude;pressure_sealevel;temperature;humidity
52855;BME280;38719;51.418;7.286;2022-12-18T00:01:23;100980.13;;;-0.18;55.51
52855;BME280;38719;51.418;7.286;2022-12-18T00:03:52;100987.91;;;-0.21;55.55
52855;BME280;38719;51.418;7.286;2022-12-18T00:06:20;100986.22;;;-0.18;55.84
52855;BME280;38719;51.418;7.286;2022-12-18T00:08:48;100988.16;;;-0.06;55.77
52855;BME280;38719;51.418;7.286;2022-12-18T00:11:17;100980.13;;;-0.17;55.79
52855;BME280;38719;51.418;7.286;2022-12-18T00:13:46;100984.41;;;-0.23;55.38
52855;BME280;38719;51.418;7.286;2022-12-18T00:16:17;100986.94;;;-0.28;55.73
52855;BME280;38719;51.418;7.286;2022-12-18T00:18:47;100994.59;;;-0.42;55.54
52855;BME280;38719;51.418;7.286;2022-12-18T00:21:15;100996.47;;;-0.31;56.25
52855;BME280;38719;51.418;7.286;2022-12-18T00:23:44;101010.59;;;-0.22;55.46
52855;BME280;38719;51.418;7.286;2022-12-18T00:26:13;101007.41;;;-0.04;54.80
52855;BME280;38719;51.418;7.286;2022-12-18T00:28:42;101009.16;;;-0.03;54.74
52855;BME280;38719;51.418;7.286;2022-12-18T00:31:10;101009.38;;;0.11;54.85
52855;BME280;38719;51.418;7.286;2022-12-18T00:33:40;100998.91;;;0.11;53.85
52855;BME280;38719;51.418;7.286;2022-12-18T00:36:10;100998.09;;;0.17;53.97
52855;BME280;38719;51.418;7.286;2022-12-18T00:38:39;100998.81;;;0.07;53.75
52855;BME280;38719;51.418;7.286;2022-12-18T00:41:07;100990.94;;;0.05;54.25
52855;BME280;38719;51.418;7.286;2022-12-18T00:43:35;101000.41;;;-0.05;53.72
52855;BME280;38719;51.418;7.286;2022-12-18T00:46:03;100985.66;;;0.04;53.85
52855;BME280;38719;51.418;7.286;2022-12-18T00:48:31;100995.44;;;0.12;53.58
52855;BME280;38719;51.418;7.286;2022-12-18T00:51:00;100997.03;;;0.03;53.94
52855;BME280;38719;51.418;7.286;2022-12-18T00:53:27;100990.91;;;0.04;53.50
52855;BME280;38719;51.418;7.286;2022-12-18T00:55:55;100994.25;;;-0.07;54.20
52855;BME280;38719;51.418;7.286;2022-12-18T00:58:22;100992.63;;;0.02;54.24
52855;BME280;38719;51.418;7.286;2022-12-18T01:00:50;100992.84;;;0.15;53.67
52855;BME280;38719;51.418;7.286;2022-12-18T01:03:17;100992.91;;;0.19;53.46
52855;BME280;38719;51.418;7.286;2022-12-18T01:05:45;100989.47;;;0.24;53.67
52855;BME280;38719;51.418;7.286;2022-12-18T01:08:14;100986.19;;;0.41;53.82
52855;BME280;38719;51.418;7.286;2022-12-18T01:10:41;100981.75;;;0.34;53.43
52855;BME280;38719;51.418;7.286;2022-12-18T01:13:09;100992.31;;;0.40;54.10
52855;BME280;38719;51.418;7.286;2022-12-18T01:15:36;100998.41;;;0.39;53.89
52855;BME280;38719;51.418;7.286;2022-12-18T01:18:04;100989.78;;;0.49;53.60
52855;BME280;38719;51.418;7.286;2022-12-18T01:20:32;100995.03;;;0.49;53.75
52855;BME280;38719;51.418;7.286;2022-12-18T01:23:00;100990.78;;;0.59;53.96
52855;BME280;38719;51.418;7.286;2022-12-18T01:25:29;100999.53;;;0.59;53.50
52855;BME280;38719;51.418;7.286;2022-12-18T01:27:56;100994.16;;;0.50;53.69
52855;BME280;38719;51.418;7.286;2022-12-18T01:30:23;100997.66;;;0.49;53.95
52855;BME280;38719;51.418;7.286;2022-12-18T01:32:51;101009.91;;;0.52;54.02
52855;BME280;38719;51.418;7.286;2022-12-18T01:35:18;101013.22;;;0.37;54.00
52855;BME280;38719;51.418;7.286;2022-12-18T01:37:46;101010.59;;;0.38;54.32
52855;BME280;38719;51.418;7.286;2022-12-18T01:40:13;101003.72;;;0.43;54.16
52855;BME280;38719;51.418;7.286;2022-12-18T01:42:42;101007.22;;;0.47;53.98
52855;BME280;38719;51.418;7.286;2022-12-18T01:45:26;101001.53;;;0.14;54.87
52855;BME280;38719;51.418;7.286;2022-12-18T01:47:56;100999.03;;;0.22;54.87
52855;BME280;38719;51.418;7.286;2022-12-18T01:50:28;100996.41;;;0.21;55.25
52855;BME280;38719;51.418;7.286;2022-12-18T01:53:00;100993.78;;;0.22;54.94
52855;BME280;38719;51.418;7.286;2022-12-18T01:55:32;100985.56;;;-0.03;55.81
52855;BME280;38719;51.418;7.286;2022-12-18T01:58:04;100988.44;;;0.13;55.34
52855;BME280;38719;51.418;7.286;2022-12-18T02:00:32;100986.38;;;-0.10;55.84
52855;BME280;38719;51.418;7.286;2022-12-18T02:02:59;100973.84;;;-0.29;56.28
52855;BME280;38719;51.418;7.286;2022-12-18T02:05:36;100966.00;;;-0.29;56.31
52855;BME280;38719;51.418;7.286;2022-12-18T02:08:10;100972.91;;;-0.33;57.16
52855;BME280;38719;51.418;7.286;2022-12-18T02:10:45;100970.31;;;-0.31;57.03
52855;BME280;38719;51.418;7.286;2022-12-18T02:13:19;100970.19;;;-0.39;57.66
52855;BME280;38719;51.418;7.286;2022-12-18T02:15:54;100985.00;;;-0.40;57.07
52855;BME280;38719;51.418;7.286;2022-12-18T02:18:28;101000.78;;;-0.37;57.36
52855;BME280;38719;51.418;7.286;2022-12-18T02:21:02;100992.13;;;-0.31;56.88
52855;BME280;38719;51.418;7.286;2022-12-18T02:23:46;100984.31;;;-0.29;57.00
52855;BME280;38719;51.418;7.286;2022-12-18T02:26:18;100983.78;;;-0.07;56.48
52855;BME280;38719;51.418;7.286;2022-12-18T02:28:51;100984.44;;;-0.20;57.08
52855;BME280;38719;51.418;7.286;2022-12-18T02:31:23;100970.28;;;-0.35;57.02
52855;BME280;38719;51.418;7.286;2022-12-18T02:33:56;100964.97;;;-0.38;57.40
52855;BME280;38719;51.418;7.286;2022-12-18T02:36:27;100962.03;;;-0.59;57.82
52855;BME280;38719;51.418;7.286;2022-12-18T02:38:56;100952.22;;;-0.70;57.94
52855;BME280;38719;51.418;7.286;2022-12-18T02:41:27;100961.97;;;-0.61;58.15
52855;BME280;38719;51.418;7.286;2022-12-18T02:43:57;100957.69;;;-0.56;58.12
52855;BME280;38719;51.418;7.286;2022-12-18T02:46:28;100955.97;;;-0.57;58.48
52855;BME280;38719;51.418;7.286;2022-12-18T02:49:03;100961.13;;;-0.58;58.44
52855;BME280;38719;51.418;7.286;2022-12-18T02:51:40;100977.00;;;-0.49;57.84
52855;BME280;38719;51.418;7.286;2022-12-18T02:54:20;100979.53;;;-0.54;58.64
52855;BME280;38719;51.418;7.286;2022-12-18T02:56:52;100973.38;;;-0.57;57.84
52855;BME280;38719;51.418;7.286;2022-12-18T02:59:26;100975.13;;;-0.56;58.82
52855;BME280;38719;51.418;7.286;2022-12-18T03:01:59;100963.84;;;-0.52;58.30
52855;BME280;38719;51.418;7.286;2022-12-18T03:04:34;100968.41;;;-0.42;57.60
52855;BME280;38719;51.418;7.286;2022-12-18T03:07:08;100972.81;;;-0.39;57.73
52855;BME280;38719;51.418;7.286;2022-12-18T03:09:41;100970.94;;;-0.48;57.68
52855;BME280;38719;51.418;7.286;2022-12-18T03:12:14;100969.97;;;-0.53;58.48
52855;BME280;38719;51.418;7.286;2022-12-18T03:14:53;100960.34;;;-0.54;58.18
52855;BME280;38719;51.418;7.286;2022-12-18T03:17:23;100958.72;;;-0.47;57.56
52855;BME280;38719;51.418;7.286;2022-12-18T03:19:53;100966.53;;;-0.51;58.08
52855;BME280;38719;51.418;7.286;2022-12-18T03:22:23;100964.66;;;-0.58;58.13
52855;BME280;38719;51.418;7.286;2022-12-18T03:24:56;100963.00;;;-0.53;58.04
52855;BME280;38719;51.418;7.286;2022-12-18T03:27:27;100954.38;;;-0.45;58.49
52855;BME280;38719;51.418;7.286;2022-12-18T03:30:01;100957.28;;;-0.28;57.89
52855;BME280;38719;51.418;7.286;2022-12-18T03:32:38;100959.00;;;-0.29;57.42
52855;BME280;38719;51.418;7.286;2022-12-18T03:35:08;100959.84;;;-0.30;57.50
52855;BME280;38719;51.418;7.286;2022-12-18T03:37:44;100948.81;;;-0.09;57.06
52855;BME280;38719;51.418;7.286;2022-12-18T03:40:11;100944.13;;;-0.33;57.04
52855;BME280;38719;51.418;7.286;2022-12-18T03:42:45;100940.88;;;-0.15;57.11
52855;BME280;38719;51.418;7.286;2022-12-18T03:45:20;100935.53;;;-0.24;57.03
52855;BME280;38719;51.418;7.286;2022-12-18T03:47:57;100945.97;;;-0.26;57.33
52855;BME280;38719;51.418;7.286;2022-12-18T03:50:33;100946.00;;;-0.23;57.39
52855;BME280;38719;51.418;7.286;2022-12-18T03:53:09;100956.38;;;-0.30;57.23
52855;BME280;38719;51.418;7.286;2022-12-18T03:55:40;100961.72;;;-0.23;56.84
52855;BME280;38719;51.418;7.286;2022-12-18T03:58:12;100959.28;;;-0.10;56.37
52855;BME280;38719;51.418;7.286;2022-12-18T04:00:43;100948.50;;;-0.32;57.40
52855;BME280;38719;51.418;7.286;2022-12-18T04:03:12;100954.88;;;-0.13;57.03
52855;BME280;38719;51.418;7.286;2022-12-18T04:05:42;100947.78;;;-0.20;56.90
52855;BME280;38719;51.418;7.286;2022-12-18T04:08:11;100952.25;;;-0.14;56.80
52855;BME280;38719;51.418;7.286;2022-12-18T04:10:39;100947.47;;;0.18;55.67
52855;BME280;38719;51.418;7.286;2022-12-18T04:13:06;100947.28;;;0.04;55.88
52855;BME280;38719;51.418;7.286;2022-12-18T04:15:36;100953.34;;;0.02;55.81
52855;BME280;38719;51.418;7.286;2022-12-18T04:18:05;100944.56;;;-0.04;56.17
52855;BME280;38719;51.418;7.286;2022-12-18T04:20:32;100948.09;;;0.00;56.15
52855;BME280;38719;51.418;7.286;2022-12-18T04:22:59;100948.03;;;-0.05;56.13
52855;BME280;38719;51.418;7.286;2022-12-18T04:25:27;100946.84;;;-0.25;56.95
52855;BME280;38719;51.418;7.286;2022-12-18T04:27:54;100954.53;;;-0.36;57.18
52855;BME280;38719;51.418;7.286;2022-12-18T04:30:22;100953.94;;;-0.17;56.03
52855;BME280;38719;51.418;7.286;2022-12-18T04:32:51;100952.22;;;-0.16;56.62
52855;BME280;38719;51.418;7.286;2022-12-18T04:35:18;100953.28;;;-0.02;56.06
52855;BME280;38719;51.418;7.286;2022-12-18T04:37:45;100954.94;;;-0.10;55.80
52855;BME280;38719;51.418;7.286;2022-12-18T04:40:13;100951.44;;;-0.09;56.56
52855;BME280;38719;51.418;7.286;2022-12-18T04:42:41;100951.31;;;-0.18;56.32
52855;BME280;38719;51.418;7.286;2022-12-18T04:45:09;100949.63;;;-0.16;55.89
52855;BME280;38719;51.418;7.286;2022-12-18T04:47:36;100955.03;;;-0.04;55.67
52855;BME280;38719;51.418;7.286;2022-12-18T04:50:06;100953.63;;;0.23;55.04
52855;BME280;38719;51.418;7.286;2022-12-18T04:52:33;100946.88;;;0.41;54.31
52855;BME280;38719;51.418;7.286;2022-12-18T04:55:01;100947.63;;;0.30;54.20
52855;BME280;38719;51.418;7.286;2022-12-18T04:57:29;100950.16;;;0.24;54.18
52855;BME280;38719;51.418;7.286;2022-12-18T04:59:56;100942.28;;;0.21;53.98
52855;BME280;38719;51.418;7.286;2022-12-18T05:02:24;100939.06;;;0.47;53.75
52855;BME280;38719;51.418;7.286;2022-12-18T05:04:52;100940.72;;;0.37;53.15
52855;BME280;38719;51.418;7.286;2022-12-18T05:07:20;100936.19;;;0.24;53.54
52855;BME280;38719;51.418;7.286;2022-12-18T05:09:48;100931.19;;;0.44;53.27
52855;BME280;38719;51.418;7.286;2022-12-18T05:12:15;100932.72;;;0.26;53.18
52855;BME280;38719;51.418;7.286;2022-12-18T05:14:43;100921.41;;;0.29;53.23
52855;BME280;38719;51.418;7.286;2022-12-18T05:17:10;100924.19;;;0.43;53.47
52855;BME280;38719;51.418;7.286;2022-12-18T05:19:38;100921.84;;;0.66;53.13
52855;BME280;38719;51.418;7.286;2022-12-18T05:22:05;100920.22;;;0.79;52.14
52855;BME280;38719;51.418;7.286;2022-12-18T05:24:34;100915.81;;;0.78;51.73
52855;BME280;38719;51.418;7.286;2022-12-18T05:27:02;100921.13;;;0.79;51.35
52855;BME280;38719;51.418;7.286;2022-12-18T05:29:30;100905.38;;;0.81;51.37
52855;BME280;38719;51.418;7.286;2022-12-18T05:31:57;100909.63;;;0.68;51.53
52855;BME280;38719;51.418;7.286;2022-12-18T05:34:25;100908.78;;;0.71;51.87
52855;BME280;38719;51.418;7.286;2022-12-18T05:36:52;100901.72;;;0.62;51.79
52855;BME280;38719;51.418;7.286;2022-12-18T05:39:20;100897.38;;;0.67;51.38
52855;BME280;38719;51.418;7.286;2022-12-18T05:41:49;100899.88;;;0.56;51.38
52855;BME280;38719;51.418;7.286;2022-12-18T05:44:16;100905.91;;;0.47;51.20
52855;BME280;38719;51.418;7.286;2022-12-18T05:46:44;100912.16;;;0.60;51.22
52855;BME280;38719;51.418;7.286;2022-12-18T05:49:11;100915.88;;;0.81;50.68
52855;BME280;38719;51.418;7.286;2022-12-18T05:51:39;100916.78;;;0.85;50.54
52855;BME280;38719;51.418;7.286;2022-12-18T05:54:07;100923.88;;;0.96;49.92
52855;BME280;38719;51.418;7.286;2022-12-18T05:56:35;100926.44;;;0.87;50.16
52855;BME280;38719;51.418;7.286;2022-12-18T05:59:04;100934.28;;;0.86;49.53
52855;BME280;38719;51.418;7.286;2022-12-18T06:01:31;100937.84;;;0.92;49.32
52855;BME280;38719;51.418;7.286;2022-12-18T06:03:59;100927.09;;;0.66;49.26
52855;BME280;38719;51.418;7.286;2022-12-18T06:06:28;100929.75;;;0.71;49.93
52855;BME280;38719;51.418;7.286;2022-12-18T06:08:57;100933.25;;;0.71;50.45
52855;BME280;38719;51.418;7.286;2022-12-18T06:11:26;100942.03;;;0.75;49.98
52855;BME280;38719;51.418;7.286;2022-12-18T06:13:54;100951.53;;;0.67;50.15
52855;BME280;38719;51.418;7.286;2022-12-18T06:16:26;100953.22;;;0.60;50.48
52855;BME280;38719;51.418;7.286;2022-12-18T06:18:56;100961.81;;;0.46;50.51
52855;BME280;38719;51.418;7.286;2022-12-18T06:21:23;100963.41;;;0.37;51.17
52855;BME280;38719;51.418;7.286;2022-12-18T06:23:51;100975.66;;;0.36;51.27
52855;BME280;38719;51.418;7.286;2022-12-18T06:26:18;100984.91;;;0.11;51.30
52855;BME280;38719;51.418;7.286;2022-12-18T06:28:53;100989.19;;;0.04;52.58
52855;BME280;38719;51.418;7.286;2022-12-18T06:31:20;100984.81;;;0.05;52.42
52855;BME280;38719;51.418;7.286;2022-12-18T06:33:49;100981.41;;;0.09;51.89
52855;BME280;38719;51.418;7.286;2022-12-18T06:36:17;100979.75;;;0.17;51.68
52855;BME280;38719;51.418;7.286;2022-12-18T06:38:45;100977.34;;;0.31;51.06
52855;BME280;38719;51.418;7.286;2022-12-18T06:41:15;100979.06;;;0.32;50.44
52855;BME280;38719;51.418;7.286;2022-12-18T06:43:44;100977.38;;;0.36;50.10
52855;BME280;38719;51.418;7.286;2022-12-18T06:46:12;100981.75;;;0.34;49.46
52855;BME280;38719;51.418;7.286;2022-12-18T06:48:40;100967.03;;;0.43;49.75
52855;BME280;38719;51.418;7.286;2022-12-18T06:51:09;100970.25;;;0.24;50.74
52855;BME280;38719;51.418;7.286;2022-12-18T06:53:36;100962.50;;;0.33;49.82
52855;BME280;38719;51.418;7.286;2022-12-18T06:56:06;100954.56;;;0.27;49.82
52855;BME280;38719;51.418;7.286;2022-12-18T06:58:36;100952.88;;;0.32;49.50
52855;BME280;38719;51.418;7.286;2022-12-18T07:01:05;100944.91;;;0.23;49.21
52855;BME280;38719;51.418;7.286;2022-12-18T07:03:33;100942.38;;;0.29;49.39
52855;BME280;38719;51.418;7.286;2022-12-18T07:06:02;100937.16;;;0.32;48.98
52855;BME280;38719;51.418;7.286;2022-12-18T07:08:31;100940.38;;;0.11;48.96
52855;BME280;38719;51.418;7.286;2022-12-18T07:10:59;100935.09;;;0.06;49.61
52855;BME280;38719;51.418;7.286;2022-12-18T07:13:30;100928.22;;;0.16;49.12
52855;BME280;38719;51.418;7.286;2022-12-18T07:16:03;100928.88;;;0.01;49.45
52855;BME280;38719;51.418;7.286;2022-12-18T07:18:38;100918.44;;;0.03;49.52
52855;BME280;38719;51.418;7.286;2022-12-18T07:21:07;100921.84;;;-0.05;48.88
52855;BME280;38719;51.418;7.286;2022-12-18T07:23:36;100920.81;;;-0.16;49.47
52855;BME280;38719;51.418;7.286;2022-12-18T07:26:06;100915.84;;;0.03;48.93
52855;BME280;38719;51.418;7.286;2022-12-18T07:28:34;100914.75;;;-0.10;48.58
52855;BME280;38719;51.418;7.286;2022-12-18T07:31:03;100918.38;;;-0.04;49.20
52855;BME280;38719;51.418;7.286;2022-12-18T07:33:33;100909.88;;;0.16;48.95
52855;BME280;38719;51.418;7.286;2022-12-18T07:36:00;100907.25;;;0.16;48.25
52855;BME280;38719;51.418;7.286;2022-12-18T07:38:29;100905.00;;;0.47;48.02
52855;BME280;38719;51.418;7.286;2022-12-18T07:41:01;100902.38;;;0.47;47.58
52855;BME280;38719;51.418;7.286;2022-12-18T07:43:32;100891.22;;;0.63;47.12
52855;BME280;38719;51.418;7.286;2022-12-18T07:46:00;100894.72;;;0.66;46.77
52855;BME280;38719;51.418;7.286;2022-12-18T07:48:28;100878.00;;;0.51;46.54
52855;BME280;38719;51.418;7.286;2022-12-18T07:50:58;100892.66;;;0.34;46.81
52855;BME280;38719;51.418;7.286;2022-12-18T07:53:25;100890.81;;;0.29;47.27
52855;BME280;38719;51.418;7.286;2022-12-18T07:55:55;100891.69;;;0.28;47.51
52855;BME280;38719;51.418;7.286;2022-12-18T07:58:44;100898.94;;;0.50;46.62
52855;BME280;38719;51.418;7.286;2022-12-18T08:01:14;100899.84;;;0.53;46.31
52855;BME280;38719;51.418;7.286;2022-12-18T08:03:42;100907.75;;;0.56;46.96
52855;BME280;38719;51.418;7.286;2022-12-18T08:06:10;100910.63;;;0.81;46.05
52855;BME280;38719;51.418;7.286;2022-12-18T08:08:37;100908.16;;;0.96;46.02
52855;BME280;38719;51.418;7.286;2022-12-18T08:11:06;100915.38;;;1.18;46.01
52855;BME280;38719;51.418;7.286;2022-12-18T08:13:34;100908.19;;;1.01;45.97
52855;BME280;38719;51.418;7.286;2022-12-18T08:16:05;100905.63;;;1.09;45.08
52855;BME280;38719;51.418;7.286;2022-12-18T08:18:34;100909.22;;;1.14;45.26
52855;BME280;38719;51.418;7.286;2022-12-18T08:21:08;100905.78;;;1.24;45.12
52855;BME280;38719;51.418;7.286;2022-12-18T08:23:35;100899.75;;;1.35;45.30
52855;BME280;38719;51.418;7.286;2022-12-18T08:26:08;100895.38;;;1.35;45.04
52855;BME280;38719;51.418;7.286;2022-12-18T08:28:36;100884.91;;;1.37;44.69
52855;BME280;38719;51.418;7.286;2022-12-18T08:31:05;100876.06;;;1.28;45.19
52855;BME280;38719;51.418;7.286;2022-12-18T08:33:34;100875.91;;;1.07;45.15
52855;BME280;38719;51.418;7.286;2022-12-18T08:36:03;100871.53;;;1.06;44.84
52855;BME280;38719;51.418;7.286;2022-12-18T08:38:31;100860.28;;;1.19;44.42
52855;BME280;38719;51.418;7.286;2022-12-18T08:40:59;100854.94;;;1.08;44.81
52855;BME280;38719;51.418;7.286;2022-12-18T08:43:27;100855.97;;;1.29;45.32
52855;BME280;38719;51.418;7.286;2022-12-18T08:46:14;100858.56;;;1.27;44.34
52855;BME280;38719;51.418;7.286;2022-12-18T08:48:42;100840.91;;;1.02;44.72
52855;BME280;38719;51.418;7.286;2022-12-18T08:51:09;100848.91;;;1.23;44.58
52855;BME280;38719;51.418;7.286;2022-12-18T08:53:37;100848.19;;;1.43;44.64
52855;BME280;38719;51.418;7.286;2022-12-18T08:56:06;100846.44;;;1.42;44.31
52855;BME280;38719;51.418;7.286;2022-12-18T08:58:34;100842.91;;;1.37;43.76
52855;BME280;38719;51.418;7.286;2022-12-18T09:01:03;100835.06;;;1.44;44.76
52855;BME280;38719;51.418;7.286;2022-12-18T09:03:33;100842.13;;;1.49;44.76
52855;BME280;38719;51.418;7.286;2022-12-18T09:06:01;100842.00;;;1.33;44.75
52855;BME280;38719;51.418;7.286;2022-12-18T09:08:28;100839.28;;;1.22;44.87
52855;BME280;38719;51.418;7.286;2022-12-18T09:10:56;100837.69;;;1.40;45.09
52855;BME280;38719;51.418;7.286;2022-12-18T09:13:23;100837.72;;;1.48;44.95
52855;BME280;38719;51.418;7.286;2022-12-18T09:15:53;100833.38;;;1.51;44.93
52855;BME280;38719;51.418;7.286;2022-12-18T09:18:22;100835.91;;;1.39;45.36
52855;BME280;38719;51.418;7.286;2022-12-18T09:20:51;100835.06;;;1.43;45.28
52855;BME280;38719;51.418;7.286;2022-12-18T09:23:19;100814.94;;;1.40;45.11
52855;BME280;38719;51.418;7.286;2022-12-18T09:25:47;100820.22;;;1.45;44.92
52855;BME280;38719;51.418;7.286;2022-12-18T09:28:16;100816.72;;;1.49;45.11
52855;BME280;38719;51.418;7.286;2022-12-18T09:30:47;100818.63;;;1.76;44.61
52855;BME280;38719;51.418;7.286;2022-12-18T09:33:16;100829.97;;;1.68;44.31
52855;BME280;38719;51.418;7.286;2022-12-18T09:35:44;100824.69;;;1.61;44.71
52855;BME280;38719;51.418;7.286;2022-12-18T09:38:16;100817.78;;;1.87;44.63
52855;BME280;38719;51.418;7.286;2022-12-18T09:40:47;100816.91;;;1.86;44.29
52855;BME280;38719;51.418;7.286;2022-12-18T09:43:17;100810.88;;;2.06;44.52
52855;BME280;38719;51.418;7.286;2022-12-18T09:45:48;100810.03;;;2.13;43.75
52855;BME280;38719;51.418;7.286;2022-12-18T09:48:20;100795.16;;;2.23;44.28
52855;BME280;38719;51.418;7.286;2022-12-18T09:50:50;100804.78;;;2.22;43.62
52855;BME280;38719;51.418;7.286;2022-12-18T09:53:24;100811.88;;;2.39;43.38
52855;BME280;38719;51.418;7.286;2022-12-18T09:55:52;100818.03;;;2.63;43.50
52855;BME280;38719;51.418;7.286;2022-12-18T09:58:24;100826.81;;;2.74;42.77
52855;BME280;38719;51.418;7.286;2022-12-18T10:00:53;100832.94;;;2.71;41.97
52855;BME280;38719;51.418;7.286;2022-12-18T10:03:21;100832.06;;;2.60;41.67
52855;BME280;38719;51.418;7.286;2022-12-18T10:05:58;100812.75;;;2.50;41.79
52855;BME280;38719;51.418;7.286;2022-12-18T10:08:37;100824.16;;;2.58;41.76
52855;BME280;38719;51.418;7.286;2022-12-18T10:11:27;100815.41;;;2.66;42.46
52855;BME280;38719;51.418;7.286;2022-12-18T10:14:03;100811.91;;;2.79;42.11
52855;BME280;38719;51.418;7.286;2022-12-18T10:16:38;100802.25;;;2.84;41.84
52855;BME280;38719;51.418;7.286;2022-12-18T10:19:21;100790.84;;;2.59;41.87
52855;BME280;38719;51.418;7.286;2022-12-18T10:21:58;100784.72;;;2.72;41.99
52855;BME280;38719;51.418;7.286;2022-12-18T10:24:35;100760.16;;;2.60;41.88
52855;BME280;38719;51.418;7.286;2022-12-18T10:27:12;100765.41;;;2.72;42.13
52855;BME280;38719;51.418;7.286;2022-12-18T10:29:41;100768.94;;;2.91;41.82
52855;BME280;38719;51.418;7.286;2022-12-18T10:32:14;100765.44;;;2.87;41.64
52855;BME280;38719;51.418;7.286;2022-12-18T10:34:46;100774.22;;;2.91;41.18
52855;BME280;38719;51.418;7.286;2022-12-18T10:37:16;100761.91;;;2.93;42.00
52855;BME280;38719;51.418;7.286;2022-12-18T10:40:06;100748.75;;;3.04;42.11
52855;BME280;38719;51.418;7.286;2022-12-18T10:42:34;100749.59;;;3.21;42.13
52855;BME280;38719;51.418;7.286;2022-12-18T10:45:12;100747.78;;;3.39;42.14
52855;BME280;38719;51.418;7.286;2022-12-18T10:47:42;100738.19;;;3.18;40.85
52855;BME280;38719;51.418;7.286;2022-12-18T10:50:19;100744.31;;;3.26;42.19
52855;BME280;38719;51.418;7.286;2022-12-18T10:52:55;100739.94;;;3.30;40.68
52855;BME280;38719;51.418;7.286;2022-12-18T10:55:29;100753.00;;;3.58;41.30
52855;BME280;38719;51.418;7.286;2022-12-18T10:58:15;100738.03;;;3.70;42.16
52855;BME280;38719;51.418;7.286;2022-12-18T11:01:03;100747.66;;;3.79;40.50
52855;BME280;38719;51.418;7.286;2022-12-18T11:03:33;100744.13;;;3.82;40.14
52855;BME280;38719;51.418;7.286;2022-12-18T11:06:05;100736.19;;;3.90;43.14
52855;BME280;38719;51.418;7.286;2022-12-18T11:08:33;100736.19;;;3.93;42.31
52855;BME280;38719;51.418;7.286;2022-12-18T11:11:02;100744.03;;;4.00;43.35
52855;BME280;38719;51.418;7.286;2022-12-18T11:13:31;100742.31;;;3.96;41.04
52855;BME280;38719;51.418;7.286;2022-12-18T11:15:59;100738.81;;;3.97;40.74
52855;BME280;38719;51.418;7.286;2022-12-18T11:18:28;100722.94;;;4.02;41.64
52855;BME280;38719;51.418;7.286;2022-12-18T11:20:59;100727.28;;;4.12;42.74
52855;BME280;38719;51.418;7.286;2022-12-18T11:23:27;100730.00;;;4.01;39.90
52855;BME280;38719;51.418;7.286;2022-12-18T11:25:57;100734.31;;;4.12;42.15
52855;BME280;38719;51.418;7.286;2022-12-18T11:28:34;100729.88;;;4.20;41.43
52855;BME280;38719;51.418;7.286;2022-12-18T11:31:24;100725.47;;;4.20;42.77
52855;BME280;38719;51.418;7.286;2022-12-18T11:33:59;100717.59;;;4.16;42.95
52855;BME280;38719;51.418;7.286;2022-12-18T11:36:47;100716.72;;;4.15;42.35
52855;BME280;38719;51.418;7.286;2022-12-18T11:39:18;100712.28;;;4.20;42.96
52855;BME280;38719;51.418;7.286;2022-12-18T11:41:52;100696.50;;;4.17;41.64
52855;BME280;38719;51.418;7.286;2022-12-18T11:44:44;100700.84;;;4.25;43.10
52855;BME280;38719;51.418;7.286;2022-12-18T11:47:21;100699.09;;;4.24;43.39
52855;BME280;38719;51.418;7.286;2022-12-18T11:49:52;100691.16;;;4.27;43.04
52855;BME280;38719;51.418;7.286;2022-12-18T11:52:26;100685.88;;;4.25;41.21
52855;BME280;38719;51.418;7.286;2022-12-18T11:54:58;100674.41;;;4.34;40.43
52855;BME280;38719;51.418;7.286;2022-12-18T11:57:33;100664.88;;;4.17;39.49
52855;BME280;38719;51.418;7.286;2022-12-18T12:00:12;100656.16;;;4.08;39.13
52855;BME280;38719;51.418;7.286;2022-12-18T12:03:04;100648.22;;;4.12;39.27
52855;BME280;38719;51.418;7.286;2022-12-18T12:05:44;100656.09;;;4.11;39.80
52855;BME280;38719;51.418;7.286;2022-12-18T12:08:22;100648.16;;;4.18;39.36
52855;BME280;38719;51.418;7.286;2022-12-18T12:10:59;100642.97;;;4.04;37.90
52855;BME280;38719;51.418;7.286;2022-12-18T12:13:40;100646.47;;;4.08;38.97
52855;BME280;38719;51.418;7.286;2022-12-18T12:16:17;100647.41;;;3.98;37.68
52855;BME280;38719;51.418;7.286;2022-12-18T12:18:56;100650.03;;;3.99;39.37
52855;BME280;38719;51.418;7.286;2022-12-18T12:21:35;100654.50;;;3.93;38.72
52855;BME280;38719;51.418;7.286;2022-12-18T12:24:18;100648.28;;;4.01;39.35
52855;BME280;38719;51.418;7.286;2022-12-18T12:26:57;100645.50;;;4.17;39.28
52855;BME280;38719;51.418;7.286;2022-12-18T12:29:36;100651.69;;;4.17;38.75
52855;BME280;38719;51.418;7.286;2022-12-18T12:32:25;100659.50;;;4.27;38.62
52855;BME280;38719;51.418;7.286;2022-12-18T12:35:05;100642.16;;;3.95;37.45
52855;BME280;38719;51.418;7.286;2022-12-18T12:37:42;100626.38;;;3.92;37.78
52855;BME280;38719;51.418;7.286;2022-12-18T12:40:19;100632.63;;;3.74;38.41
52855;BME280;38719;51.418;7.286;2022-12-18T12:43:19;100631.75;;;3.78;39.22
52855;BME280;38719;51.418;7.286;2022-12-18T12:45:51;100623.72;;;3.96;38.93
52855;BME280;38719;51.418;7.286;2022-12-18T12:48:31;100640.34;;;4.03;38.90
52855;BME280;38719;51.418;7.286;2022-12-18T12:51:02;100635.19;;;3.86;39.27
52855;BME280;38719;51.418;7.286;2022-12-18T12:53:35;100626.53;;;3.64;38.56
52855;BME280;38719;51.418;7.286;2022-12-18T12:56:08;100639.72;;;3.67;38.71
52855;BME280;38719;51.418;7.286;2022-12-18T12:58:45;100625.72;;;3.55;39.74
52855;BME280;38719;51.418;7.286;2022-12-18T13:01:24;100620.44;;;3.57;39.63
52855;BME280;38719;51.418;7.286;2022-12-18T13:04:00;100625.66;;;3.68;39.78
52855;BME280;38719;51.418;7.286;2022-12-18T13:06:37;100629.00;;;3.92;39.76
52855;BME280;38719;51.418;7.286;2022-12-18T13:09:10;100627.25;;;3.91;39.73
52855;BME280;38719;51.418;7.286;2022-12-18T13:11:39;100632.41;;;4.08;40.34
52855;BME280;38719;51.418;7.286;2022-12-18T13:14:31;100624.50;;;4.09;40.28
52855;BME280;38719;51.418;7.286;2022-12-18T13:17:20;100610.47;;;4.06;39.67
52855;BME280;38719;51.418;7.286;2022-12-18T13:20:05;100616.66;;;4.00;39.91